Time;durP1;ratioP1;P1;durP2;ratioP2;P2;SDS_P1;SDS_P2;PMS_P1;PMS_P2;Temp;Humidity;BMP_temperature;BMP_pressure;BME280_temperature;BME280_humidity;BME280_pressure;Samples;Min_cycle;Max_cycle;Signal;HPM_P1;HPM_P2
2021/05/18 00:00:07;;;;;;;1.73;0.20;;;;;;;10.29;68.87;96250.59;5403655;23;20038;-80
2021/05/18 00:02:36;;;;;;;0.60;0.30;;;;;;;10.30;68.60;96243.59;4982723;28;20048;-80
2021/05/18 00:05:05;;;;;;;0.13;0.10;;;;;;;10.30;68.73;96239.19;5000645;28;20287;-81
2021/05/18 00:07:36;;;;;;;0.60;0.30;;;;;;;10.33;68.87;96247.63;5000698;28;20042;-80
2021/05/18 00:15:37;;;;;;;0.30;0.28;;;;;;;10.37;69.40;96252.28;5463341;23;20038;-80
2021/05/18 00:20:47;;;;;;;1.15;0.20;;;;;;;10.37;69.20;96254.09;5550555;23;20053;-81
2021/05/18 00:23:15;;;;;;;0.20;0.10;;;;;;;10.38;69.04;96256.47;4986881;28;20043;-81
2021/05/18 00:25:44;;;;;;;1.77;0.38;;;;;;;10.37;69.20;96254.09;4999097;28;20098;-81
2021/05/18 00:28:12;;;;;;;1.25;0.30;;;;;;;10.37;69.19;96261.91;4998592;28;20055;-81
2021/05/18 00:30:41;;;;;;;0.20;0.20;;;;;;;10.35;69.45;96269.91;5422046;23;20055;-80
2021/05/18 00:33:14;;;;;;;0.38;0.20;;;;;;;10.35;69.41;96266.50;5196742;23;20035;-81
2021/05/18 00:35:43;;;;;;;0.82;0.50;;;;;;;10.35;69.35;96266.50;4999555;28;20034;-81
2021/05/18 00:38:14;;;;;;;1.25;0.45;;;;;;;10.36;69.58;96268.09;5058921;23;20039;-80
2021/05/18 00:40:42;;;;;;;0.28;0.25;;;;;;;10.38;69.40;96269.50;4981098;29;20030;-80
2021/05/18 00:43:11;;;;;;;0.38;0.30;;;;;;;10.39;69.42;96273.75;4979975;28;20031;-81
2021/05/18 00:48:17;;;;;;;0.47;0.25;;;;;;;10.37;69.61;96264.50;5901547;23;20054;-80
2021/05/18 00:50:48;;;;;;;0.30;0.30;;;;;;;10.38;69.63;96260.91;4999550;28;20035;-81
2021/05/18 00:53:17;;;;;;;0.30;0.30;;;;;;;10.39;69.52;96272.97;5719075;23;20025;-81
2021/05/18 00:55:49;;;;;;;0.57;0.30;;;;;;;10.39;69.70;96272.97;4978329;28;20059;-81
2021/05/18 00:58:26;;;;;;;0.20;0.20;;;;;;;10.37;69.32;96274.94;4979533;28;20034;-81
2021/05/18 01:00:56;;;;;;;0.20;0.20;;;;;;;10.34;69.64;96270.09;4979387;28;20039;-81
2021/05/18 01:03:26;;;;;;;0.25;0.20;;;;;;;10.33;69.89;96276.31;4987092;28;20037;-80
2021/05/18 01:08:42;;;;;;;0.80;0.30;;;;;;;10.34;69.72;96280.50;4979392;28;20105;-80
2021/05/18 01:11:13;;;;;;;0.63;0.20;;;;;;;10.33;70.11;96284.94;4978822;28;20039;-81
2021/05/18 01:13:42;;;;;;;0.35;0.17;;;;;;;10.35;69.87;96285.56;5031042;23;20102;-81
2021/05/18 01:16:11;;;;;;;2.10;0.22;;;;;;;10.34;69.91;96291.75;4999919;28;20062;-81
2021/05/18 01:18:43;;;;;;;0.10;0.10;;;;;;;10.33;70.31;96295.34;4999884;28;20059;-80
2021/05/18 01:21:13;;;;;;;1.58;0.25;;;;;;;10.34;70.51;96296.97;5000911;28;20058;-81
2021/05/18 01:23:42;;;;;;;0.50;0.20;;;;;;;10.32;70.53;96298.97;5003277;28;20045;-81
2021/05/18 01:26:12;;;;;;;0.80;0.25;;;;;;;10.30;70.92;96312.19;5002558;28;20030;-81
2021/05/18 01:31:23;;;;;;;0.38;0.13;;;;;;;10.23;71.36;96306.09;5576752;23;20062;-82
2021/05/18 01:33:54;;;;;;;1.00;0.60;;;;;;;10.21;72.28;96309.84;4994263;28;20038;-82
2021/05/18 01:39:04;;;;;;;3.38;0.40;;;;;;;10.21;72.52;96312.44;5106190;23;20035;-81
2021/05/18 01:47:01;;;;;;;0.30;0.30;;;;;;;10.20;72.68;96327.28;5120308;23;20062;-81
2021/05/18 01:49:31;;;;;;;0.65;0.30;;;;;;;10.16;72.69;96318.22;4983482;29;20035;-80
2021/05/18 01:52:03;;;;;;;1.35;0.30;;;;;;;10.11;72.97;96318.78;4983588;29;20035;-81
2021/05/18 02:02:37;;;;;;;0.93;0.30;;;;;;;10.06;73.24;96326.34;5910842;23;20078;-82
2021/05/18 02:10:30;;;;;;;0.67;0.23;;;;;;;10.04;73.47;96327.53;5187799;23;20344;-82
2021/05/18 02:12:59;;;;;;;0.30;0.20;;;;;;;10.04;73.50;96333.56;4987492;28;20050;-82
2021/05/18 02:15:40;;;;;;;0.43;0.40;;;;;;;10.03;73.59;96328.50;5002614;28;20038;-82
2021/05/18 02:21:09;;;;;;;0.38;0.30;;;;;;;10.02;73.20;96332.13;4941615;29;20042;-82
2021/05/18 02:26:29;;;;;;;0.88;0.30;;;;;;;10.01;73.42;96339.13;5002228;28;20042;-82
2021/05/18 02:28:57;;;;;;;0.38;0.22;;;;;;;10.00;73.56;96336.72;5002316;28;20035;-82
2021/05/18 02:39:25;;;;;;;0.37;0.27;;;;;;;9.97;73.46;96350.09;5538488;23;20063;-82
2021/05/18 02:41:53;;;;;;;1.83;0.40;;;;;;;9.97;73.64;96342.28;4982505;29;20039;-81
2021/05/18 02:44:27;;;;;;;0.50;0.22;;;;;;;9.97;73.51;96352.69;4982407;28;20035;-81
2021/05/18 02:49:42;;;;;;;0.98;0.22;;;;;;;10.01;73.70;96346.94;4982378;29;20051;-82
2021/05/18 02:52:10;;;;;;;0.32;0.10;;;;;;;10.03;73.68;96346.75;5054866;23;20034;-83
2021/05/18 02:54:40;;;;;;;0.25;0.20;;;;;;;10.04;73.49;96348.38;5019594;28;20065;-82
2021/05/18 02:57:11;;;;;;;1.40;0.28;;;;;;;10.01;73.46;96339.13;5021266;28;20034;-82
2021/05/18 02:59:40;;;;;;;0.47;0.47;;;;;;;9.99;73.62;96341.13;5021379;28;20030;-82
2021/05/18 03:07:25;;;;;;;0.30;0.20;;;;;;;10.02;73.86;96345.16;5504013;23;20162;-82
2021/05/18 03:09:54;;;;;;;0.68;0.30;;;;;;;10.03;73.86;96354.56;4981816;29;20035;-81
2021/05/18 03:12:22;;;;;;;0.47;0.40;;;;;;;10.02;73.96;96351.16;4981931;28;20046;-82
2021/05/18 03:14:50;;;;;;;1.13;0.47;;;;;;;10.00;74.03;96354.97;5001227;28;20035;-82
2021/05/18 03:17:19;;;;;;;0.82;0.45;;;;;;;10.00;74.33;96349.75;5000890;28;20066;-83
2021/05/18 03:22:30;;;;;;;1.08;0.30;;;;;;;10.06;74.20;96359.44;5643649;23;20066;-81
2021/05/18 03:24:59;;;;;;;2.50;0.47;;;;;;;10.07;74.13;96351.41;5001171;28;20061;-83
2021/05/18 03:27:29;;;;;;;0.52;0.28;;;;;;;10.09;74.08;96354.66;5376012;23;21576;-81
2021/05/18 03:41:08;;;;;;;0.73;0.30;;;;;;;10.09;73.97;96366.88;5628161;23;20058;-82
2021/05/18 03:43:48;;;;;;;0.40;0.20;;;;;;;10.07;73.58;96367.06;5016071;23;20039;-81
2021/05/18 03:54:47;;;;;;;1.20;0.60;;;;;;;10.03;73.32;96368.41;5078747;23;20054;-82
2021/05/18 04:16:51;;;;;;;0.73;0.40;;;;;;;10.09;73.70;96377.31;5323356;23;20257;-81
2021/05/18 05:08:24;;;;;;;0.60;0.60;;;;;;;10.15;73.70;96431.31;4957475;29;20777;-76
2021/05/18 05:16:25;;;;;;;2.20;0.40;;;;;;;10.20;73.64;96435.97;4977063;28;20050;-76
2021/05/18 05:18:52;;;;;;;2.28;1.08;;;;;;;10.22;73.71;96432.19;4976727;28;20577;-76
2021/05/18 12:59:03;;;;;;;0.28;0.20;;;;;;;14.70;55.33;96385.19;4978964;28;20062;-87
2021/05/18 13:01:40;;;;;;;0.95;0.20;;;;;;;14.83;53.65;96385.91;4999014;28;20090;-86
2021/05/18 13:04:09;;;;;;;1.52;0.30;;;;;;;14.94;53.17;96380.97;4998404;28;20050;-87
2021/05/18 13:06:44;;;;;;;1.48;0.40;;;;;;;15.00;52.71;96380.13;4997670;28;20034;-86
2021/05/18 13:09:26;;;;;;;0.90;0.20;;;;;;;15.10;52.78;96384.88;4997783;28;20102;-85
2021/05/18 13:15:19;;;;;;;0.73;0.20;;;;;;;15.06;52.90;96389.75;4996437;28;20050;-86
2021/05/18 13:21:33;;;;;;;1.88;0.25;;;;;;;14.96;51.57;96411.25;5001419;28;20114;-86
2021/05/18 13:24:24;;;;;;;0.68;0.40;;;;;;;14.71;50.40;96424.34;4998215;28;20039;-85
2021/05/18 13:26:51;;;;;;;3.17;0.50;;;;;;;14.39;51.95;96421.69;4982565;28;20039;-87
2021/05/18 13:29:57;;;;;;;1.75;0.30;;;;;;;14.21;53.18;96397.94;4983133;28;20066;-86
2021/05/18 13:32:27;;;;;;;1.92;0.47;;;;;;;14.18;54.01;96417.53;4982954;28;20034;-88
2021/05/18 13:34:55;;;;;;;0.80;0.30;;;;;;;14.22;53.50;96404.81;4982892;28;20053;-85
2021/05/18 13:37:23;;;;;;;0.20;0.20;;;;;;;14.31;55.59;96411.44;4982765;28;20037;-87
2021/05/18 13:43:57;;;;;;;1.27;0.40;;;;;;;14.49;53.75;96404.66;4982711;28;20042;-86
2021/05/18 13:46:48;;;;;;;2.83;0.40;;;;;;;14.53;54.02;96401.41;4982555;28;20090;-86
2021/05/18 13:49:17;;;;;;;1.27;0.75;;;;;;;14.58;55.09;96403.44;4981948;28;20043;-87
2021/05/18 13:51:45;;;;;;;2.45;0.30;;;;;;;14.65;55.85;96392.88;4981983;28;20071;-86
2021/05/18 13:54:30;;;;;;;1.90;0.30;;;;;;;14.70;55.82;96380.75;4980452;28;20031;-86
2021/05/18 13:56:58;;;;;;;1.00;0.47;;;;;;;14.73;55.97;96390.81;4981264;28;20098;-86
2021/05/18 13:59:28;;;;;;;1.05;0.20;;;;;;;14.80;53.91;96391.59;4980685;28;20051;-85
2021/05/18 14:01:56;;;;;;;0.57;0.20;;;;;;;14.83;52.71;96385.91;4980503;28;20047;-85
2021/05/18 14:04:24;;;;;;;2.95;0.82;;;;;;;14.89;52.81;96380.78;4980060;28;20074;-86
2021/05/18 14:10:39;;;;;;;0.25;0.10;;;;;;;14.95;51.87;96372.06;4980228;28;20118;-85
2021/05/18 14:13:07;;;;;;;0.22;0.20;;;;;;;14.97;50.56;96354.28;4992518;28;20502;-86
2021/05/18 14:15:34;;;;;;;0.38;0.30;;;;;;;15.00;50.55;96353.84;4997207;28;20039;-85
2021/05/18 14:18:01;;;;;;;0.55;0.10;;;;;;;15.04;50.66;96349.75;4995307;28;20055;-86
2021/05/18 14:20:30;;;;;;;0.52;0.10;;;;;;;15.07;49.37;96341.47;4991397;28;20065;-86
2021/05/18 14:22:58;;;;;;;0.63;0.20;;;;;;;15.08;49.07;96347.50;4976219;28;20051;-84
2021/05/18 14:25:26;;;;;;;0.40;0.20;;;;;;;15.08;48.96;96340.44;4994934;28;20043;-86
2021/05/18 14:28:04;;;;;;;1.50;0.20;;;;;;;15.13;49.12;96339.78;4994830;28;20546;-86
2021/05/18 14:30:32;;;;;;;0.57;0.10;;;;;;;15.17;48.44;96344.38;4989988;28;20490;-86
2021/05/18 14:33:00;;;;;;;1.85;0.20;;;;;;;15.20;48.13;96343.97;4969674;28;20059;-85
2021/05/18 14:39:23;;;;;;;0.90;0.50;;;;;;;15.24;48.48;96339.88;4988936;28;20046;-86
2021/05/18 14:45:01;;;;;;;1.65;0.40;;;;;;;15.30;49.42;96346.06;4968763;28;20057;-86
2021/05/18 14:47:32;;;;;;;0.35;0.20;;;;;;;15.33;48.32;96342.22;4968316;29;20051;-85
2021/05/18 14:55:45;;;;;;;2.80;0.35;;;;;;;15.36;46.45;96347.03;4987677;28;20094;-86
2021/05/18 14:58:14;;;;;;;0.80;0.20;;;;;;;15.33;47.13;96348.28;4997432;28;20058;-85
2021/05/18 15:00:42;;;;;;;0.52;0.20;;;;;;;15.32;47.21;96351.13;4986429;28;20130;-84
2021/05/18 15:03:09;;;;;;;2.42;0.40;;;;;;;15.32;47.65;96341.41;4985925;28;20054;-85
2021/05/18 15:05:37;;;;;;;0.45;0.13;;;;;;;15.36;47.43;96342.59;4986862;28;20059;-85
2021/05/18 15:08:06;;;;;;;1.40;0.20;;;;;;;15.43;47.51;96339.88;4986985;28;20097;-85
2021/05/18 15:10:33;;;;;;;0.60;0.20;;;;;;;15.49;47.30;96330.34;4981047;28;20046;-85
2021/05/18 15:13:03;;;;;;;0.60;0.20;;;;;;;15.53;47.76;96348.06;4961738;29;20134;-84
2021/05/18 15:15:30;;;;;;;2.70;0.63;;;;;;;15.56;46.98;96344.19;4961625;28;20051;-85
2021/05/18 15:17:58;;;;;;;1.10;0.43;;;;;;;15.53;47.15;96336.75;4963348;29;20114;-84
2021/05/18 15:20:26;;;;;;;2.78;0.20;;;;;;;15.45;46.92;96356.25;4975099;29;20062;-88
2021/05/18 15:22:54;;;;;;;0.10;0.10;;;;;;;15.37;45.09;96357.34;4981565;28;20059;-86
2021/05/18 15:25:21;;;;;;;1.42;0.10;;;;;;;15.31;44.78;96360.84;4991765;28;20085;-87
2021/05/18 15:27:49;;;;;;;2.08;0.20;;;;;;;15.28;44.97;96363.09;4985699;28;20049;-86
2021/05/18 15:30:18;;;;;;;0.22;0.10;;;;;;;15.26;44.46;96368.53;4982739;28;20054;-86
2021/05/18 15:32:45;;;;;;;1.52;0.40;;;;;;;15.22;48.14;96377.91;4982548;28;20062;-86
2021/05/18 15:35:13;;;;;;;0.30;0.10;;;;;;;15.10;49.25;96390.13;4988450;28;20097;-84
2021/05/18 15:37:42;;;;;;;2.08;0.50;;;;;;;14.92;50.40;96404.03;4991847;28;20059;-87
2021/05/18 15:40:12;;;;;;;1.27;0.13;;;;;;;14.61;48.88;96408.28;4988028;28;20058;-86
2021/05/18 15:42:40;;;;;;;1.17;0.20;;;;;;;14.28;49.44;96419.72;4979642;28;21534;-86
2021/05/18 18:15:09;;;;;;;1.90;0.40;;;;;;;12.30;58.19;96464.13;5669833;23;20043;-86
